Time;durP1;ratioP1;P1;durP2;ratioP2;P2;SDS_P1;SDS_P2;PMS_P1;PMS_P2;Temp;Humidity;BMP_temperature;BMP_pressure;BME280_temperature;BME280_humidity;BME280_pressure;Samples;Min_cycle;Max_cycle;Signal;HPM_P1;HPM_P2
2021/01/30 00:01:17;;;;;;;3.10;1.40;;;8.60;99.90;;;;;;5033581;28;20449;-94
2021/01/30 00:03:43;;;;;;;3.00;1.10;;;8.60;99.90;;;;;;5034532;28;20549;-94
2021/01/30 00:06:10;;;;;;;3.17;1.00;;;8.60;99.90;;;;;;5035904;28;20464;-93
2021/01/30 00:08:52;;;;;;;3.70;1.17;;;8.60;99.90;;;;;;5036682;28;20426;-94
2021/01/30 00:11:23;;;;;;;2.90;0.93;;;8.60;99.90;;;;;;5036485;28;20918;-94
2021/01/30 00:14:04;;;;;;;2.60;1.10;;;8.50;99.90;;;;;;5034956;28;20434;-93
2021/01/30 00:16:30;;;;;;;2.40;1.10;;;8.60;99.90;;;;;;5035397;28;20895;-94
2021/01/30 00:18:56;;;;;;;2.73;1.00;;;8.60;99.90;;;;;;5037201;28;20853;-95
2021/01/30 00:21:25;;;;;;;6.20;0.80;;;8.60;99.90;;;;;;5040418;28;20457;-94
2021/01/30 00:23:55;;;;;;;1.33;1.13;;;8.60;99.90;;;;;;5052990;28;20485;-94
2021/01/30 00:26:24;;;;;;;1.70;1.20;;;8.60;99.90;;;;;;5051921;28;20474;-94
2021/01/30 00:28:51;;;;;;;5.70;1.07;;;8.60;99.90;;;;;;5034725;28;20536;-93
2021/01/30 00:34:35;;;;;;;1.43;0.83;;;8.60;99.90;;;;;;5032229;28;20458;-94
2021/01/30 00:37:10;;;;;;;1.73;0.70;;;8.60;99.90;;;;;;5036653;28;20480;-94
2021/01/30 00:39:39;;;;;;;2.60;0.83;;;8.60;99.90;;;;;;5036764;28;20547;-94
2021/01/30 00:48:23;;;;;;;2.53;1.20;;;8.40;99.90;;;;;;5034203;28;20445;-93
2021/01/30 00:50:49;;;;;;;1.53;1.10;;;8.40;99.90;;;;;;5036709;28;20464;-94
2021/01/30 00:53:48;;;;;;;;;;;;;;;;;;;;;
2021/01/30 00:56:27;;;;;;;2.20;1.00;;;8.40;99.90;;;;;;5047039;28;20464;-92
2021/01/30 00:59:02;;;;;;;1.33;0.93;;;8.40;99.90;;;;;;5044156;28;20473;-93
2021/01/30 01:01:37;;;;;;;2.90;0.93;;;8.40;99.90;;;;;;5036600;28;20437;-93
2021/01/30 01:04:32;;;;;;;3.97;1.70;;;8.40;99.90;;;;;;5035797;28;20429;-93
2021/01/30 01:06:59;;;;;;;1.33;0.80;;;8.40;99.90;;;;;;5036260;28;21038;-94
2021/01/30 01:09:34;;;;;;;1.30;0.90;;;8.40;99.90;;;;;;5035393;28;20441;-93
2021/01/30 01:12:02;;;;;;;1.10;0.77;;;8.40;99.90;;;;;;5036217;28;20441;-93
2021/01/30 01:14:29;;;;;;;1.83;1.20;;;8.40;99.90;;;;;;5037928;28;20922;-92
2021/01/30 01:16:55;;;;;;;3.17;0.93;;;8.30;99.90;;;;;;5038877;28;20576;-94
2021/01/30 01:19:24;;;;;;;3.53;1.37;;;8.30;99.90;;;;;;5038516;28;20476;-93
2021/01/30 01:21:52;;;;;;;1.33;0.80;;;8.20;99.90;;;;;;5035974;28;20465;-92
2021/01/30 01:24:20;;;;;;;3.33;1.00;;;8.20;99.90;;;;;;5034251;28;20487;-92
2021/01/30 01:26:47;;;;;;;1.93;0.83;;;8.10;99.90;;;;;;5034598;28;20496;-92
2021/01/30 01:29:16;;;;;;;2.43;0.80;;;8.20;99.90;;;;;;5034253;28;20449;-94
2021/01/30 01:31:42;;;;;;;1.07;0.70;;;8.30;99.90;;;;;;5034424;28;20437;-95
2021/01/30 01:34:17;;;;;;;1.93;0.90;;;8.30;99.90;;;;;;5034528;28;20449;-94
2021/01/30 01:36:49;;;;;;;1.90;0.90;;;8.30;99.90;;;;;;5033770;28;20530;-93
2021/01/30 01:39:26;;;;;;;2.17;0.80;;;8.30;99.90;;;;;;5033843;28;20473;-94
2021/01/30 01:42:13;;;;;;;2.40;0.77;;;8.30;99.90;;;;;;5033591;28;20882;-94
2021/01/30 01:44:42;;;;;;;1.10;0.87;;;8.30;99.90;;;;;;5034067;28;20485;-93
2021/01/30 01:47:20;;;;;;;1.20;1.07;;;8.40;99.90;;;;;;5034060;28;20997;-92
2021/01/30 01:49:56;;;;;;;1.10;0.73;;;8.40;99.90;;;;;;5034048;28;20507;-93
2021/01/30 01:52:33;;;;;;;1.00;0.90;;;8.50;99.90;;;;;;5034190;28;20811;-92
2021/01/30 01:55:07;;;;;;;1.80;0.80;;;8.60;99.90;;;;;;5033807;28;20522;-93
2021/01/30 01:57:40;;;;;;;1.80;0.80;;;8.60;99.90;;;;;;5033692;28;20496;-93
2021/01/30 02:00:18;;;;;;;1.90;1.03;;;8.70;99.90;;;;;;5033573;28;20464;-92
2021/01/30 02:02:58;;;;;;;3.80;0.80;;;8.70;99.90;;;;;;5034075;28;20949;-92
2021/01/30 02:05:39;;;;;;;3.30;3.00;;;8.80;99.90;;;;;;5033547;28;20564;-93
2021/01/30 02:08:23;;;;;;;3.50;1.00;;;8.80;99.90;;;;;;5033435;28;20441;-94
2021/01/30 02:10:53;;;;;;;1.47;1.00;;;8.80;99.90;;;;;;5033819;28;20449;-93
2021/01/30 02:13:32;;;;;;;1.23;0.90;;;8.90;99.90;;;;;;5033653;28;20460;-94
2021/01/30 02:16:13;;;;;;;3.63;0.70;;;8.90;99.90;;;;;;5032987;28;20553;-93
2021/01/30 02:19:00;;;;;;;3.53;0.90;;;8.90;99.90;;;;;;5033121;28;20460;-94
2021/01/30 02:22:02;;;;;;;3.50;0.97;;;8.80;99.90;;;;;;5033530;28;20803;-94
2021/01/30 02:28:17;;;;;;;1.23;0.67;;;8.80;99.90;;;;;;4987966;28;20449;-94
2021/01/30 02:31:23;;;;;;;1.30;0.80;;;8.80;99.90;;;;;;5033767;28;20445;-94
2021/01/30 02:34:34;;;;;;;2.27;0.97;;;8.70;99.90;;;;;;5033675;28;20480;-94
2021/01/30 02:37:11;;;;;;;1.80;0.97;;;8.60;99.90;;;;;;4972537;28;20507;-94
2021/01/30 02:39:45;;;;;;;2.13;0.80;;;8.60;99.90;;;;;;4975414;28;20494;-93
2021/01/30 02:42:41;;;;;;;4.80;1.40;;;8.50;99.90;;;;;;5016551;28;20453;-93
2021/01/30 02:45:11;;;;;;;1.20;0.70;;;8.50;99.90;;;;;;5057145;28;20731;-94
2021/01/30 02:47:50;;;;;;;1.73;0.73;;;8.50;99.90;;;;;;5044599;28;20500;-93
2021/01/30 02:50:21;;;;;;;2.30;0.60;;;8.40;99.90;;;;;;5032592;28;20453;-94
2021/01/30 02:52:51;;;;;;;2.13;0.70;;;8.30;99.90;;;;;;5033258;28;20508;-93
2021/01/30 02:55:19;;;;;;;2.13;0.60;;;8.30;99.90;;;;;;5039842;28;20429;-93
2021/01/30 02:57:47;;;;;;;0.60;0.50;;;8.20;99.90;;;;;;5038356;28;20476;-93
2021/01/30 03:00:19;;;;;;;1.87;0.87;;;8.10;99.90;;;;;;5033680;28;20489;-94
2021/01/30 03:02:51;;;;;;;2.10;0.67;;;8.10;99.90;;;;;;5032400;28;20437;-94
2021/01/30 03:05:18;;;;;;;1.13;0.63;;;8.00;99.90;;;;;;5032294;28;20458;-94
2021/01/30 03:08:07;;;;;;;1.70;0.70;;;8.00;99.90;;;;;;5032645;28;20453;-93
2021/01/30 03:11:02;;;;;;;2.30;1.10;;;8.10;99.90;;;;;;5032993;28;20449;-93
2021/01/30 03:13:48;;;;;;;0.80;0.60;;;8.10;99.90;;;;;;5032661;28;20433;-93
2021/01/30 03:16:29;;;;;;;1.43;0.83;;;8.00;99.90;;;;;;5033120;28;20445;-92
2021/01/30 03:19:18;;;;;;;0.87;0.40;;;8.00;99.90;;;;;;5033772;28;20472;-93
2021/01/30 03:22:09;;;;;;;1.20;0.80;;;7.90;99.90;;;;;;5034164;28;20515;-93
2021/01/30 03:24:52;;;;;;;1.00;0.67;;;8.00;99.90;;;;;;5034250;28;20500;-93
2021/01/30 03:27:29;;;;;;;0.57;0.50;;;8.00;99.90;;;;;;5033949;28;20477;-93
2021/01/30 03:30:15;;;;;;;2.70;0.67;;;8.10;99.90;;;;;;5034859;28;20492;-94
2021/01/30 03:33:07;;;;;;;1.07;0.67;;;8.10;99.90;;;;;;5053979;28;20456;-93
2021/01/30 03:35:45;;;;;;;0.87;0.60;;;8.10;99.90;;;;;;5006056;28;20473;-93
2021/01/30 03:41:09;;;;;;;1.23;0.60;;;8.20;99.90;;;;;;5042681;28;20437;-93
2021/01/30 03:43:59;;;;;;;1.10;0.90;;;8.20;99.90;;;;;;5034632;28;20503;-93
2021/01/30 03:46:39;;;;;;;0.60;0.40;;;8.10;99.90;;;;;;5038769;28;20453;-93
2021/01/30 03:49:18;;;;;;;0.87;0.57;;;8.10;99.90;;;;;;5051074;28;20471;-93
2021/01/30 03:51:55;;;;;;;2.00;0.73;;;8.10;99.90;;;;;;5049249;28;20461;-94
2021/01/30 03:54:42;;;;;;;2.67;0.77;;;8.10;99.90;;;;;;5035441;28;20540;-95
2021/01/30 03:57:38;;;;;;;2.50;0.87;;;8.10;99.90;;;;;;5032896;28;20520;-94
2021/01/30 04:00:14;;;;;;;2.73;0.80;;;8.10;99.90;;;;;;5033020;28;20993;-94
2021/01/30 04:02:43;;;;;;;1.13;0.57;;;8.20;99.90;;;;;;5032449;28;20476;-93
2021/01/30 04:08:15;;;;;;;1.93;0.50;;;8.10;99.90;;;;;;5034394;28;20516;-93
2021/01/30 04:11:07;;;;;;;1.50;0.60;;;8.20;99.90;;;;;;5036657;28;20445;-93
2021/01/30 04:13:51;;;;;;;2.07;0.60;;;8.10;99.90;;;;;;5036695;28;20448;-94
2021/01/30 04:16:23;;;;;;;0.90;0.50;;;8.10;99.90;;;;;;5036194;28;20469;-93
2021/01/30 04:18:58;;;;;;;1.00;0.70;;;8.10;99.90;;;;;;5035674;28;20430;-94
2021/01/30 04:21:31;;;;;;;2.63;1.27;;;8.00;99.90;;;;;;5035854;28;20471;-93
2021/01/30 04:24:16;;;;;;;0.80;0.50;;;8.10;99.90;;;;;;5035649;28;20472;-94
2021/01/30 04:26:57;;;;;;;0.90;0.70;;;8.10;99.90;;;;;;5035683;28;20830;-94
2021/01/30 04:29:40;;;;;;;0.83;0.70;;;8.00;99.90;;;;;;5036034;28;20485;-93
2021/01/30 04:32:20;;;;;;;0.73;0.50;;;8.00;99.90;;;;;;5036468;28;20457;-93
2021/01/30 04:35:08;;;;;;;2.50;0.50;;;8.00;99.90;;;;;;5035646;28;20453;-94
2021/01/30 04:37:41;;;;;;;1.30;0.70;;;8.00;99.90;;;;;;5035017;28;20508;-94
2021/01/30 04:40:28;;;;;;;1.77;0.93;;;8.10;99.90;;;;;;5035077;28;20568;-95
2021/01/30 04:43:06;;;;;;;1.40;0.57;;;8.10;99.90;;;;;;5035093;28;20456;-95
2021/01/30 04:45:50;;;;;;;3.23;0.70;;;8.10;99.90;;;;;;5035060;28;20453;-95
2021/01/30 04:48:44;;;;;;;2.27;0.60;;;8.10;99.90;;;;;;5034871;28;20968;-94
2021/01/30 04:51:16;;;;;;;0.77;0.63;;;8.10;99.90;;;;;;5035450;28;20452;-95
2021/01/30 04:54:17;;;;;;;2.23;0.73;;;8.10;99.90;;;;;;5036474;28;20545;-94
2021/01/30 04:57:01;;;;;;;3.50;1.10;;;8.10;99.90;;;;;;5043588;28;20476;-91
2021/01/30 04:59:42;;;;;;;1.40;0.70;;;8.10;99.90;;;;;;5046786;28;20469;-94
2021/01/30 05:02:26;;;;;;;2.90;1.00;;;8.10;99.90;;;;;;5038622;28;20457;-95
2021/01/30 05:05:07;;;;;;;1.20;0.90;;;8.10;99.90;;;;;;5051821;28;20479;-94
2021/01/30 05:07:47;;;;;;;1.87;0.83;;;8.10;99.90;;;;;;5054287;28;20943;-94
2021/01/30 05:10:26;;;;;;;2.40;0.70;;;8.10;99.90;;;;;;5035900;28;20467;-94
2021/01/30 05:13:00;;;;;;;4.17;1.27;;;8.10;99.90;;;;;;5034608;28;20441;-93
2021/01/30 05:15:37;;;;;;;3.27;0.90;;;8.20;99.90;;;;;;5033132;28;20461;-94
2021/01/30 05:18:09;;;;;;;3.40;1.83;;;8.10;99.90;;;;;;5035112;28;20468;-94
2021/01/30 05:20:41;;;;;;;2.23;1.00;;;8.20;99.90;;;;;;5034683;28;20476;-94
2021/01/30 05:23:20;;;;;;;2.90;1.10;;;8.20;99.90;;;;;;5034949;28;20492;-93
2021/01/30 05:26:03;;;;;;;4.83;2.53;;;8.20;99.90;;;;;;5034993;28;20441;-93
2021/01/30 05:28:45;;;;;;;5.07;1.20;;;8.10;99.90;;;;;;5034518;28;20656;-94
2021/01/30 05:31:30;;;;;;;3.80;1.27;;;8.20;99.90;;;;;;5034346;28;21007;-93
2021/01/30 05:34:08;;;;;;;3.80;1.80;;;8.20;99.90;;;;;;5034011;28;21166;-93
2021/01/30 05:36:48;;;;;;;2.00;1.00;;;8.20;99.90;;;;;;5034170;28;20571;-93
2021/01/30 05:39:47;;;;;;;1.30;0.80;;;8.20;99.90;;;;;;5034321;28;20473;-93
2021/01/30 05:42:27;;;;;;;5.40;1.50;;;8.20;99.90;;;;;;5034012;28;20453;-93
2021/01/30 05:45:10;;;;;;;4.87;1.57;;;8.20;99.90;;;;;;5034269;28;20421;-94
2021/01/30 05:47:40;;;;;;;3.53;1.03;;;8.20;99.90;;;;;;5034036;28;20533;-93
2021/01/30 05:50:16;;;;;;;3.83;1.90;;;8.20;99.90;;;;;;5033847;28;20453;-92
2021/01/30 05:52:43;;;;;;;9.90;1.97;;;8.20;99.90;;;;;;5033649;28;20467;-93
2021/01/30 05:55:24;;;;;;;5.40;1.30;;;8.20;99.90;;;;;;5034037;28;20461;-94
2021/01/30 05:57:50;;;;;;;6.90;1.73;;;8.10;99.90;;;;;;5034275;28;20952;-93
2021/01/30 06:00:19;;;;;;;3.77;1.10;;;8.10;99.90;;;;;;5033767;28;20476;-94
2021/01/30 06:03:01;;;;;;;3.47;1.10;;;8.10;99.90;;;;;;5033892;28;20969;-93
2021/01/30 06:05:31;;;;;;;3.43;1.37;;;8.10;99.90;;;;;;5033623;28;20954;-93
2021/01/30 06:08:20;;;;;;;7.80;2.03;;;8.10;99.90;;;;;;5033900;28;20476;-93
2021/01/30 06:10:48;;;;;;;5.57;1.60;;;8.10;99.90;;;;;;5033998;28;20946;-94
2021/01/30 06:13:19;;;;;;;5.07;1.77;;;8.10;99.90;;;;;;5033407;28;20437;-94
2021/01/30 06:15:47;;;;;;;6.00;1.40;;;8.00;99.90;;;;;;5033466;28;20445;-94
2021/01/30 06:18:24;;;;;;;6.57;1.80;;;8.00;99.90;;;;;;5033620;28;20458;-94
2021/01/30 06:21:00;;;;;;;9.53;1.70;;;8.10;99.90;;;;;;5033817;28;21187;-95
2021/01/30 06:23:26;;;;;;;6.93;1.80;;;8.00;99.90;;;;;;5035930;28;20800;-92
2021/01/30 06:25:53;;;;;;;3.47;1.50;;;8.00;99.90;;;;;;5035705;28;20461;-93
2021/01/30 06:28:24;;;;;;;4.40;1.87;;;8.10;99.90;;;;;;5036454;28;20429;-93
2021/01/30 06:30:51;;;;;;;3.90;1.33;;;8.10;99.90;;;;;;5035185;28;20449;-94
2021/01/30 06:33:25;;;;;;;7.33;2.90;;;8.00;99.90;;;;;;5033977;28;20449;-94
2021/01/30 06:35:56;;;;;;;4.43;1.67;;;8.00;99.90;;;;;;5034743;28;20414;-94
2021/01/30 06:38:31;;;;;;;4.50;1.73;;;8.00;99.90;;;;;;5033669;28;20443;-96
2021/01/30 06:41:00;;;;;;;6.40;2.37;;;8.00;99.90;;;;;;5033229;28;20595;-94
2021/01/30 06:43:30;;;;;;;6.17;1.93;;;8.00;99.90;;;;;;5033190;28;20472;-93
2021/01/30 06:46:07;;;;;;;9.10;2.03;;;8.00;99.90;;;;;;5033038;28;20476;-92
2021/01/30 06:48:38;;;;;;;6.17;1.50;;;8.00;99.90;;;;;;5032810;28;20449;-94
2021/01/30 06:51:36;;;;;;;5.90;1.70;;;7.90;99.90;;;;;;5032449;28;20452;-94
2021/01/30 06:54:23;;;;;;;7.33;1.97;;;8.00;99.90;;;;;;5034125;28;20472;-94
2021/01/30 06:57:01;;;;;;;5.87;1.67;;;8.00;99.90;;;;;;5035901;28;20529;-95
2021/01/30 06:59:29;;;;;;;6.77;1.90;;;8.00;99.90;;;;;;5047771;28;20671;-91
2021/01/30 07:01:56;;;;;;;6.67;1.90;;;8.00;99.90;;;;;;5034343;28;20433;-93
2021/01/30 07:04:56;;;;;;;5.40;1.90;;;8.00;99.90;;;;;;5032795;28;20430;-94
2021/01/30 07:07:25;;;;;;;7.80;2.00;;;8.00;99.90;;;;;;5032543;28;20453;-93
2021/01/30 07:10:08;;;;;;;5.13;1.60;;;8.10;99.90;;;;;;5032825;28;20444;-93
2021/01/30 07:12:45;;;;;;;5.60;1.63;;;8.10;99.90;;;;;;5032290;28;20418;-94
2021/01/30 07:15:21;;;;;;;6.50;2.10;;;8.10;99.90;;;;;;5032664;28;20449;-93
2021/01/30 07:18:08;;;;;;;13.40;3.00;;;8.20;99.90;;;;;;5033493;28;20477;-94
2021/01/30 07:20:44;;;;;;;8.67;3.37;;;8.20;99.90;;;;;;5036362;28;20469;-94
2021/01/30 07:23:15;;;;;;;5.90;2.97;;;8.20;99.90;;;;;;5045075;28;20429;-93
2021/01/30 07:26:06;;;;;;;5.33;2.10;;;8.20;99.90;;;;;;5054424;28;20513;-95
2021/01/30 07:28:38;;;;;;;6.43;2.23;;;8.20;99.90;;;;;;5032377;28;20429;-94
2021/01/30 07:31:10;;;;;;;5.47;2.07;;;8.20;99.90;;;;;;5032448;28;20468;-94
2021/01/30 07:33:47;;;;;;;7.70;1.90;;;8.30;99.90;;;;;;5032062;28;20449;-95
2021/01/30 07:36:17;;;;;;;7.07;3.40;;;8.30;99.90;;;;;;5032259;28;20883;-93
2021/01/30 07:38:50;;;;;;;15.63;3.00;;;8.40;99.90;;;;;;5031940;28;20433;-94
2021/01/30 07:41:48;;;;;;;7.70;2.40;;;8.40;99.90;;;;;;5032224;28;20477;-94
2021/01/30 07:44:20;;;;;;;11.73;2.60;;;8.40;99.90;;;;;;5033924;28;20794;-94
2021/01/30 07:46:53;;;;;;;6.73;2.50;;;8.50;99.90;;;;;;5032671;28;20473;-94
2021/01/30 07:49:23;;;;;;;8.07;2.77;;;8.50;99.90;;;;;;5033488;28;20962;-94
2021/01/30 07:51:58;;;;;;;8.20;2.53;;;8.50;99.90;;;;;;5033537;28;20426;-93
2021/01/30 07:54:25;;;;;;;9.20;2.33;;;8.50;99.90;;;;;;5032028;28;20499;-93
2021/01/30 07:57:16;;;;;;;6.20;3.13;;;8.50;99.90;;;;;;5031727;28;20965;-94
2021/01/30 07:59:51;;;;;;;8.57;3.07;;;8.60;99.90;;;;;;5037301;28;20480;-94
2021/01/30 08:02:45;;;;;;;7.20;2.07;;;8.60;99.90;;;;;;5033722;28;20436;-95
2021/01/30 08:05:38;;;;;;;8.40;2.83;;;8.70;99.90;;;;;;5032103;28;20776;-92
2021/01/30 08:08:18;;;;;;;5.50;1.87;;;8.70;99.90;;;;;;5029325;28;20441;-93
2021/01/30 08:10:57;;;;;;;5.90;1.90;;;8.70;99.90;;;;;;5033157;28;20414;-92
2021/01/30 08:13:37;;;;;;;5.83;2.60;;;8.80;99.90;;;;;;5033986;28;20495;-93
2021/01/30 08:16:14;;;;;;;9.13;2.67;;;8.90;99.90;;;;;;5032616;28;20496;-93
2021/01/30 08:18:41;;;;;;;7.50;2.40;;;8.90;99.90;;;;;;5033224;28;20471;-94
2021/01/30 08:21:18;;;;;;;13.00;2.33;;;9.00;99.90;;;;;;5032680;28;21029;-94
2021/01/30 08:23:58;;;;;;;7.90;3.00;;;9.10;99.90;;;;;;5032323;28;20934;-94
2021/01/30 08:26:30;;;;;;;4.93;1.70;;;9.10;99.90;;;;;;5032214;28;20820;-94
2021/01/30 08:29:13;;;;;;;6.03;2.50;;;9.00;99.90;;;;;;5031987;28;20437;-94
2021/01/30 08:31:43;;;;;;;4.73;2.00;;;9.00;99.90;;;;;;5029214;28;20500;-93
2021/01/30 08:34:41;;;;;;;9.20;1.93;;;9.00;99.90;;;;;;5031153;28;20608;-93
2021/01/30 08:37:35;;;;;;;9.97;2.23;;;9.10;99.90;;;;;;4970206;28;20464;-93
2021/01/30 08:40:12;;;;;;;13.10;3.50;;;9.10;99.90;;;;;;5026528;28;20469;-93
2021/01/30 08:42:55;;;;;;;11.57;2.60;;;9.10;99.90;;;;;;5032342;28;20429;-94
2021/01/30 08:45:27;;;;;;;8.53;2.53;;;9.20;99.90;;;;;;5032730;28;20452;-93
2021/01/30 08:48:08;;;;;;;4.80;2.17;;;9.10;99.90;;;;;;5033438;28;20468;-94
2021/01/30 08:50:41;;;;;;;6.23;2.40;;;9.10;99.90;;;;;;5034302;28;20484;-94
2021/01/30 08:53:13;;;;;;;4.93;2.20;;;9.10;99.90;;;;;;5036538;28;20653;-93
2021/01/30 08:55:55;;;;;;;15.93;2.80;;;9.10;99.90;;;;;;5036827;28;20941;-94
2021/01/30 08:58:47;;;;;;;7.67;2.90;;;9.10;99.90;;;;;;5045994;28;20444;-92
2021/01/30 09:01:44;;;;;;;8.87;2.60;;;9.10;99.90;;;;;;5043811;28;20555;-92
2021/01/30 09:04:48;;;;;;;6.13;2.93;;;9.10;99.90;;;;;;5030116;28;20533;-92
2021/01/30 09:07:34;;;;;;;12.40;2.87;;;9.20;99.90;;;;;;5034922;28;20528;-93
2021/01/30 09:10:33;;;;;;;3.07;2.00;;;9.10;99.90;;;;;;5035095;28;20528;-93
2021/01/30 09:13:06;;;;;;;8.83;2.33;;;9.20;99.90;;;;;;5033498;28;20953;-93
2021/01/30 09:16:01;;;;;;;8.13;3.30;;;9.20;99.90;;;;;;5035771;28;20438;-94
2021/01/30 09:18:55;;;;;;;8.93;2.40;;;9.30;99.90;;;;;;5033960;28;20442;-93
2021/01/30 09:21:33;;;;;;;7.00;2.73;;;9.40;99.90;;;;;;5028555;28;20461;-92
2021/01/30 09:24:19;;;;;;;10.80;2.63;;;9.40;99.90;;;;;;5035623;28;20441;-92
2021/01/30 09:27:06;;;;;;;6.00;3.00;;;9.40;99.90;;;;;;5034628;28;20472;-94
2021/01/30 09:29:38;;;;;;;2.93;2.00;;;9.40;99.90;;;;;;5033644;28;20824;-93
2021/01/30 09:32:06;;;;;;;8.40;2.37;;;9.60;99.90;;;;;;5037057;28;20517;-93
2021/01/30 09:34:37;;;;;;;5.97;3.20;;;9.60;99.90;;;;;;5036070;28;20437;-92
2021/01/30 09:37:04;;;;;;;9.00;2.87;;;9.70;99.90;;;;;;5042531;28;20442;-92
2021/01/30 09:39:32;;;;;;;5.40;2.00;;;9.80;99.90;;;;;;5054417;28;20564;-91
2021/01/30 09:42:09;;;;;;;8.63;2.57;;;9.80;99.90;;;;;;5053631;28;20460;-93
2021/01/30 09:44:36;;;;;;;12.37;2.67;;;9.80;99.90;;;;;;5053635;28;20786;-93
2021/01/30 09:47:15;;;;;;;6.97;2.70;;;9.80;99.90;;;;;;5037461;28;20468;-92
2021/01/30 09:49:45;;;;;;;12.53;3.47;;;9.90;99.90;;;;;;5040189;28;20464;-92
2021/01/30 09:52:14;;;;;;;9.83;4.00;;;10.00;99.90;;;;;;5050277;28;20441;-94
2021/01/30 09:54:41;;;;;;;6.27;2.63;;;10.10;99.90;;;;;;5049809;28;20854;-93
2021/01/30 09:57:09;;;;;;;9.50;4.07;;;10.10;99.90;;;;;;5036609;28;20536;-93
2021/01/30 09:59:35;;;;;;;7.73;2.80;;;10.10;99.90;;;;;;5035118;28;20507;-91
2021/01/30 10:02:12;;;;;;;10.50;3.63;;;10.00;99.90;;;;;;5036173;28;20422;-93
2021/01/30 10:04:39;;;;;;;7.10;3.20;;;10.10;99.90;;;;;;5034817;28;20504;-93
2021/01/30 10:07:10;;;;;;;6.90;2.60;;;10.20;99.90;;;;;;5034552;28;20985;-92
2021/01/30 10:09:41;;;;;;;13.87;2.93;;;10.10;99.90;;;;;;5035551;28;20476;-93
2021/01/30 10:12:07;;;;;;;9.37;2.10;;;10.20;99.90;;;;;;5034908;28;20433;-93
2021/01/30 10:14:36;;;;;;;11.07;3.03;;;10.20;99.90;;;;;;5034695;28;20679;-92
2021/01/30 10:17:06;;;;;;;8.70;3.00;;;10.30;99.90;;;;;;5034194;28;20453;-95
2021/01/30 10:19:36;;;;;;;9.50;2.67;;;10.30;99.90;;;;;;5034421;28;20536;-91
2021/01/30 10:22:15;;;;;;;5.90;2.10;;;10.30;99.90;;;;;;5036410;28;20452;-92
2021/01/30 10:24:43;;;;;;;13.73;3.80;;;10.20;99.90;;;;;;5034086;28;20441;-93
2021/01/30 10:27:14;;;;;;;13.40;3.17;;;10.30;99.90;;;;;;5034259;28;20457;-93
2021/01/30 10:29:41;;;;;;;8.30;3.07;;;10.50;99.90;;;;;;5035000;28;20453;-92
2021/01/30 10:32:11;;;;;;;7.80;2.20;;;10.60;99.90;;;;;;5034458;28;20461;-92
2021/01/30 10:34:41;;;;;;;6.83;2.10;;;10.60;99.90;;;;;;5033050;28;20949;-92
2021/01/30 10:37:13;;;;;;;8.33;2.43;;;10.50;99.90;;;;;;5032985;28;20460;-92
2021/01/30 10:39:45;;;;;;;8.13;2.10;;;10.50;99.90;;;;;;5033987;28;20570;-93
2021/01/30 10:42:19;;;;;;;9.63;3.57;;;10.40;99.90;;;;;;5033427;28;20942;-93
2021/01/30 10:44:47;;;;;;;6.93;2.20;;;10.40;99.90;;;;;;5028045;28;20450;-92
2021/01/30 10:47:14;;;;;;;5.80;2.77;;;10.30;99.90;;;;;;5037047;28;20477;-91
2021/01/30 10:49:41;;;;;;;6.67;2.00;;;10.20;99.90;;;;;;5034747;28;20465;-92
2021/01/30 10:52:13;;;;;;;3.10;1.70;;;10.10;99.90;;;;;;5035391;28;20442;-87
2021/01/30 10:54:42;;;;;;;7.83;2.27;;;10.00;99.90;;;;;;5033512;28;20486;-90
2021/01/30 10:57:28;;;;;;;5.90;2.17;;;10.00;99.90;;;;;;5034454;28;20505;-94
2021/01/30 10:59:59;;;;;;;6.40;1.87;;;10.10;99.90;;;;;;5035577;28;20460;-93
2021/01/30 11:02:42;;;;;;;5.57;2.80;;;10.00;99.90;;;;;;5040676;28;20496;-94
2021/01/30 11:05:27;;;;;;;7.40;2.47;;;10.00;99.90;;;;;;5036300;28;20444;-93
2021/01/30 11:07:57;;;;;;;5.53;2.73;;;9.90;99.90;;;;;;5032566;28;20499;-93
2021/01/30 11:10:28;;;;;;;9.13;2.70;;;9.90;99.90;;;;;;5032027;28;20438;-87
2021/01/30 11:13:11;;;;;;;4.93;1.90;;;9.90;99.90;;;;;;5030189;28;20437;-87
2021/01/30 11:15:41;;;;;;;5.17;2.60;;;9.90;99.90;;;;;;5030736;28;20465;-89
2021/01/30 11:18:17;;;;;;;6.27;3.07;;;9.90;99.90;;;;;;5032537;28;20498;-93
2021/01/30 11:20:46;;;;;;;5.60;2.20;;;10.00;99.90;;;;;;5033459;28;20475;-94
2021/01/30 11:23:52;;;;;;;6.67;5.83;;;10.10;99.90;;;;;;5032814;28;20503;-93
2021/01/30 11:26:35;;;;;;;15.20;3.20;;;10.20;99.90;;;;;;5017972;28;20508;-92
2021/01/30 11:29:28;;;;;;;9.03;3.27;;;10.30;99.90;;;;;;5032488;28;20449;-94
2021/01/30 11:31:55;;;;;;;3.17;1.90;;;10.50;99.90;;;;;;5031731;28;20450;-93
2021/01/30 11:34:22;;;;;;;6.83;2.60;;;10.60;99.90;;;;;;5031862;28;20454;-91
2021/01/30 11:36:49;;;;;;;3.73;1.97;;;10.70;99.90;;;;;;5031017;28;20495;-90
2021/01/30 11:39:23;;;;;;;5.43;1.93;;;10.70;99.90;;;;;;5030971;28;20442;-90
2021/01/30 11:41:50;;;;;;;6.77;2.23;;;10.70;99.90;;;;;;5029532;28;20441;-92
2021/01/30 11:44:16;;;;;;;14.13;7.47;;;10.70;99.90;;;;;;5030799;28;20429;-91
2021/01/30 11:46:42;;;;;;;6.70;2.43;;;10.60;99.90;;;;;;5030720;28;20464;-91
2021/01/30 11:49:14;;;;;;;13.57;3.67;;;10.50;99.90;;;;;;5031477;28;20807;-92
2021/01/30 11:51:40;;;;;;;6.57;2.20;;;10.50;99.90;;;;;;5033115;28;20461;-91
2021/01/30 11:54:06;;;;;;;8.93;3.00;;;10.60;99.90;;;;;;5035650;28;20488;-92
2021/01/30 11:56:33;;;;;;;6.73;3.10;;;10.70;99.90;;;;;;5049591;28;20453;-92
2021/01/30 11:59:00;;;;;;;9.40;3.77;;;10.80;99.90;;;;;;5048140;28;20996;-94
2021/01/30 12:01:26;;;;;;;10.33;4.20;;;10.90;99.90;;;;;;5035392;28;20463;-92
2021/01/30 12:03:53;;;;;;;9.07;5.17;;;10.90;99.90;;;;;;5032724;28;20499;-94
2021/01/30 12:06:19;;;;;;;7.23;4.20;;;11.00;99.90;;;;;;5034685;28;20540;-94
2021/01/30 12:08:45;;;;;;;3.97;2.90;;;10.90;99.90;;;;;;5034296;28;20465;-93
2021/01/30 12:11:13;;;;;;;6.83;2.60;;;10.90;99.90;;;;;;5034112;28;20504;-95
2021/01/30 12:13:40;;;;;;;5.07;2.40;;;11.00;99.90;;;;;;5033148;28;20448;-95
2021/01/30 12:16:07;;;;;;;4.93;2.13;;;11.00;99.90;;;;;;5033162;28;20460;-94
2021/01/30 12:18:46;;;;;;;7.80;3.07;;;11.00;99.90;;;;;;5031291;28;20440;-93
2021/01/30 12:21:13;;;;;;;7.23;2.47;;;11.00;99.90;;;;;;5029464;28;20910;-91
2021/01/30 12:23:39;;;;;;;9.27;2.90;;;10.90;99.90;;;;;;5030593;28;20441;-93
2021/01/30 12:26:06;;;;;;;5.30;2.07;;;10.80;99.90;;;;;;5034037;28;20501;-91
2021/01/30 12:28:35;;;;;;;3.07;2.13;;;10.60;99.90;;;;;;5031401;28;20945;-93
2021/01/30 12:31:02;;;;;;;5.47;2.10;;;10.40;99.90;;;;;;5034669;28;20453;-93
2021/01/30 12:33:35;;;;;;;6.83;2.97;;;10.20;99.90;;;;;;5034100;28;20545;-93
2021/01/30 12:36:01;;;;;;;7.30;2.10;;;10.10;99.90;;;;;;5033975;28;20476;-92
2021/01/30 12:38:51;;;;;;;9.13;2.20;;;9.80;99.90;;;;;;5034149;28;20470;-93
2021/01/30 12:41:18;;;;;;;4.47;1.80;;;9.50;99.90;;;;;;5033876;28;20979;-93
2021/01/30 12:43:45;;;;;;;7.93;2.77;;;9.40;99.90;;;;;;5033962;28;20436;-93
2021/01/30 12:46:16;;;;;;;7.43;1.80;;;9.20;99.90;;;;;;5033505;28;20473;-91
2021/01/30 12:48:43;;;;;;;9.50;2.30;;;9.00;99.90;;;;;;5034242;28;20449;-91
2021/01/30 12:51:11;;;;;;;11.20;6.70;;;8.90;99.90;;;;;;5033455;28;20546;-91
2021/01/30 12:53:38;;;;;;;6.23;2.57;;;8.90;99.90;;;;;;5034447;28;20502;-90
2021/01/30 12:56:05;;;;;;;7.70;3.20;;;8.90;99.90;;;;;;5032353;28;20473;-92
2021/01/30 12:58:33;;;;;;;7.77;2.27;;;8.90;99.90;;;;;;5033945;28;20437;-92
2021/01/30 13:01:44;;;;;;;7.20;2.20;;;8.90;99.90;;;;;;5033709;28;20475;-91
2021/01/30 13:07:48;;;;;;;9.40;3.57;;;9.10;99.90;;;;;;4995716;28;20495;-91
2021/01/30 13:10:18;;;;;;;6.37;3.10;;;9.10;99.90;;;;;;5033656;28;20442;-91
2021/01/30 13:12:44;;;;;;;4.87;3.00;;;9.20;99.90;;;;;;5033255;28;20433;-91
2021/01/30 13:15:12;;;;;;;7.60;3.13;;;9.10;99.90;;;;;;5033624;28;20445;-91
2021/01/30 13:17:38;;;;;;;10.60;3.30;;;9.10;99.90;;;;;;5032509;28;20460;-91
2021/01/30 13:20:07;;;;;;;5.60;2.63;;;9.20;99.90;;;;;;5030794;28;20488;-90
2021/01/30 13:22:34;;;;;;;9.13;2.93;;;9.20;99.90;;;;;;5033037;28;20445;-90
2021/01/30 13:25:01;;;;;;;4.67;3.20;;;9.20;99.90;;;;;;5033251;28;20460;-90
2021/01/30 13:27:27;;;;;;;10.03;2.97;;;9.30;99.90;;;;;;5032922;28;21040;-91
2021/01/30 13:29:54;;;;;;;6.27;2.13;;;9.20;99.90;;;;;;5033111;28;20964;-92
2021/01/30 13:32:20;;;;;;;6.97;2.90;;;9.00;99.90;;;;;;5033077;28;20438;-91
2021/01/30 13:34:46;;;;;;;8.53;3.33;;;9.00;99.90;;;;;;5033118;28;20446;-90
2021/01/30 13:37:16;;;;;;;8.23;3.03;;;9.00;99.90;;;;;;5031763;28;20472;-91
2021/01/30 13:39:42;;;;;;;11.70;3.40;;;8.90;99.90;;;;;;5033049;28;20449;-91
2021/01/30 13:42:09;;;;;;;10.30;2.90;;;8.80;99.90;;;;;;5033211;28;20445;-90
2021/01/30 13:44:36;;;;;;;8.83;3.43;;;8.70;99.90;;;;;;5032853;28;20483;-91
2021/01/30 13:47:02;;;;;;;13.67;4.63;;;8.70;99.90;;;;;;5033013;28;21024;-91
2021/01/30 13:49:32;;;;;;;8.73;3.40;;;8.60;99.90;;;;;;5033685;28;20441;-93
2021/01/30 13:52:03;;;;;;;9.97;3.30;;;8.50;99.90;;;;;;5034632;28;20450;-92
2021/01/30 13:54:30;;;;;;;17.20;4.00;;;8.40;99.90;;;;;;5033145;28;20441;-91
2021/01/30 13:56:56;;;;;;;10.00;4.10;;;8.40;99.90;;;;;;5033726;28;20497;-94
2021/01/30 13:59:28;;;;;;;8.70;4.67;;;8.50;99.90;;;;;;5034364;28;20926;-94
2021/01/30 14:01:56;;;;;;;9.57;3.60;;;8.40;99.90;;;;;;5033786;28;20564;-91